EDW368 LSZH-LIEO
Flight info
| Callsign | EDW368 |
|---|---|
| Flight time | N/A |
| Altitude | 38000 |
| Route | VEBIT T53 GERSA DCT SOSON DCT ODINA/N0448F390 DCT BAKRO DCT ELB DCT MAMAR DCT GITRI |
| Aircraft | A320/M-SDE3FGHIRWY/LB1 |
Departure
| Time | N/A |
|---|---|
| Airport | Zürich Airport (LSZH) |
Arrival
| Time | 2026-05-04 15:58 |
|---|---|
| Airport | Olbia Costa Smeralda Airport (LIEO) |
| Time | Latitude | Longitude | Altitude | Speed | Heading |
|---|---|---|---|---|---|
| 2026-05-04 14:42 | 46.48155 | 8.61189 | 31582 ft | 433 kts | 176° |
| 2026-05-04 14:42 | 46.45157 | 8.61616 | 31896 ft | 433 kts | 176° |
| 2026-05-04 14:42 | 46.42164 | 8.62044 | 32203 ft | 433 kts | 177° |
| 2026-05-04 14:43 | 46.39168 | 8.62466 | 32547 ft | 432 kts | 177° |
| 2026-05-04 14:43 | 46.36177 | 8.62884 | 32830 ft | 432 kts | 177° |
| 2026-05-04 14:43 | 46.33182 | 8.63306 | 33142 ft | 432 kts | 177° |
| 2026-05-04 14:43 | 46.30195 | 8.63727 | 33477 ft | 431 kts | 177° |
| 2026-05-04 14:44 | 46.27208 | 8.64147 | 33813 ft | 431 kts | 177° |
| 2026-05-04 14:44 | 46.24223 | 8.64566 | 34117 ft | 431 kts | 177° |
| 2026-05-04 14:44 | 46.21240 | 8.64984 | 34374 ft | 431 kts | 178° |
| 2026-05-04 14:44 | 46.18288 | 8.65398 | 34636 ft | 431 kts | 178° |
| 2026-05-04 14:45 | 46.15274 | 8.65821 | 34885 ft | 431 kts | 178° |
| 2026-05-04 14:45 | 46.12278 | 8.66245 | 35148 ft | 431 kts | 177° |
| 2026-05-04 14:45 | 46.09319 | 8.67010 | 35407 ft | 435 kts | 168° |
| 2026-05-04 14:45 | 46.06447 | 8.68263 | 35652 ft | 436 kts | 166° |
| 2026-05-04 14:46 | 46.03551 | 8.69546 | 35842 ft | 437 kts | 167° |
| 2026-05-04 14:46 | 46.00643 | 8.70829 | 36037 ft | 438 kts | 167° |
| 2026-05-04 14:46 | 45.97728 | 8.72114 | 36242 ft | 438 kts | 167° |
| 2026-05-04 14:46 | 45.94805 | 8.73398 | 36421 ft | 438 kts | 167° |
| 2026-05-04 14:47 | 45.91886 | 8.74676 | 36583 ft | 439 kts | 167° |
| 2026-05-04 14:47 | 45.88952 | 8.75956 | 36786 ft | 440 kts | 167° |
| 2026-05-04 14:47 | 45.86026 | 8.77234 | 36999 ft | 440 kts | 167° |
| 2026-05-04 14:47 | 45.83094 | 8.78513 | 37209 ft | 440 kts | 167° |
| 2026-05-04 14:48 | 45.80158 | 8.79791 | 37390 ft | 441 kts | 167° |
| 2026-05-04 14:48 | 45.77226 | 8.81072 | 37578 ft | 442 kts | 167° |
| 2026-05-04 14:48 | 45.74282 | 8.82362 | 37776 ft | 442 kts | 167° |
| 2026-05-04 14:48 | 45.71344 | 8.83650 | 37985 ft | 442 kts | 167° |
| 2026-05-04 14:49 | 45.68404 | 8.84936 | 38100 ft | 442 kts | 167° |
| 2026-05-04 14:49 | 45.65460 | 8.86219 | 38110 ft | 442 kts | 167° |
| 2026-05-04 14:49 | 45.59570 | 8.88774 | 38104 ft | 442 kts | 168° |
| 2026-05-04 14:50 | 45.53682 | 8.91311 | 38102 ft | 442 kts | 168° |
| 2026-05-04 14:50 | 45.47835 | 8.93833 | 38105 ft | 442 kts | 168° |
| 2026-05-04 14:51 | 45.41945 | 8.96374 | 38052 ft | 442 kts | 168° |
| 2026-05-04 14:51 | 45.36048 | 8.98909 | 38070 ft | 443 kts | 168° |
| 2026-05-04 14:52 | 45.30106 | 9.01467 | 38080 ft | 443 kts | 168° |
| 2026-05-04 14:52 | 45.24235 | 9.03989 | 38092 ft | 444 kts | 168° |
| 2026-05-04 14:53 | 45.18325 | 9.06511 | 38090 ft | 444 kts | 168° |
| 2026-05-04 14:53 | 45.12399 | 9.09037 | 38095 ft | 444 kts | 168° |
| 2026-05-04 14:54 | 45.06483 | 9.11559 | 38104 ft | 444 kts | 168° |
| 2026-05-04 14:54 | 45.00564 | 9.14078 | 38091 ft | 444 kts | 168° |
| 2026-05-04 14:55 | 44.94650 | 9.16582 | 38100 ft | 444 kts | 169° |
| 2026-05-04 14:55 | 44.88731 | 9.19089 | 38092 ft | 444 kts | 168° |
| 2026-05-04 14:56 | 44.82806 | 9.21599 | 38098 ft | 445 kts | 168° |
| 2026-05-04 14:56 | 44.76877 | 9.24097 | 38094 ft | 445 kts | 169° |
| 2026-05-04 14:57 | 44.70937 | 9.26580 | 38093 ft | 444 kts | 169° |
| 2026-05-04 14:57 | 44.65006 | 9.29067 | 38105 ft | 446 kts | 169° |
| 2026-05-04 14:58 | 44.59059 | 9.31556 | 38094 ft | 446 kts | 169° |
| 2026-05-04 14:58 | 44.53113 | 9.34034 | 38106 ft | 446 kts | 169° |
| 2026-05-04 14:59 | 44.47168 | 9.36511 | 38109 ft | 446 kts | 169° |
| 2026-05-04 15:00 | 44.38241 | 9.40225 | 38111 ft | 446 kts | 169° |
| 2026-05-04 15:00 | 44.32300 | 9.42687 | 38112 ft | 446 kts | 169° |
| 2026-05-04 15:01 | 44.23383 | 9.46368 | 38105 ft | 446 kts | 169° |
| 2026-05-04 15:01 | 44.17430 | 9.48823 | 38087 ft | 446 kts | 170° |
| 2026-05-04 15:02 | 44.11471 | 9.51281 | 38084 ft | 447 kts | 170° |
| 2026-05-04 15:02 | 44.05495 | 9.53739 | 38091 ft | 448 kts | 170° |
| 2026-05-04 15:03 | 43.99514 | 9.56185 | 38080 ft | 448 kts | 171° |
| 2026-05-04 15:03 | 43.93521 | 9.58630 | 38089 ft | 449 kts | 171° |
| 2026-05-04 15:04 | 43.87530 | 9.61070 | 38082 ft | 449 kts | 171° |
| 2026-05-04 15:04 | 43.81529 | 9.63519 | 38080 ft | 449 kts | 171° |
| 2026-05-04 15:05 | 43.75525 | 9.65962 | 38079 ft | 450 kts | 171° |
| 2026-05-04 15:05 | 43.69559 | 9.68376 | 38079 ft | 449 kts | 171° |
| 2026-05-04 15:06 | 43.66559 | 9.69588 | 37858 ft | 449 kts | 171° |
| 2026-05-04 15:06 | 43.63525 | 9.70816 | 37579 ft | 449 kts | 171° |
| 2026-05-04 15:06 | 43.60524 | 9.72032 | 37294 ft | 450 kts | 171° |
| 2026-05-04 15:07 | 43.54512 | 9.74469 | 37084 ft | 451 kts | 171° |
| 2026-05-04 15:07 | 43.48468 | 9.76895 | 37075 ft | 452 kts | 171° |
| 2026-05-04 15:08 | 43.42471 | 9.79299 | 37074 ft | 452 kts | 171° |
| 2026-05-04 15:08 | 43.36421 | 9.81721 | 37077 ft | 453 kts | 171° |
| 2026-05-04 15:09 | 43.30365 | 9.84141 | 37067 ft | 454 kts | 171° |
| 2026-05-04 15:09 | 43.24299 | 9.86562 | 37067 ft | 454 kts | 171° |
| 2026-05-04 15:10 | 43.18358 | 9.89729 | 37051 ft | 468 kts | 156° |
| 2026-05-04 15:10 | 43.15648 | 9.92263 | 37055 ft | 476 kts | 147° |
| 2026-05-04 15:11 | 43.07949 | 10.00917 | 37067 ft | 478 kts | 147° |
| 2026-05-04 15:11 | 43.02761 | 10.06698 | 37071 ft | 478 kts | 147° |
| 2026-05-04 15:12 | 42.97633 | 10.12399 | 37057 ft | 478 kts | 147° |
| 2026-05-04 15:12 | 42.92473 | 10.18132 | 37074 ft | 478 kts | 147° |
| 2026-05-04 15:13 | 42.87305 | 10.23854 | 37070 ft | 479 kts | 147° |
| 2026-05-04 15:13 | 42.82129 | 10.29584 | 37080 ft | 480 kts | 147° |
| 2026-05-04 15:14 | 42.76941 | 10.35313 | 37079 ft | 480 kts | 147° |
| 2026-05-04 15:14 | 42.71605 | 10.40704 | 37064 ft | 472 kts | 157° |
| 2026-05-04 15:15 | 42.65893 | 10.45081 | 37078 ft | 471 kts | 157° |
| 2026-05-04 15:15 | 42.60185 | 10.49459 | 37085 ft | 471 kts | 157° |
| 2026-05-04 15:16 | 42.51617 | 10.56026 | 37070 ft | 471 kts | 157° |
| 2026-05-04 15:17 | 42.43033 | 10.62577 | 37072 ft | 473 kts | 157° |
| 2026-05-04 15:17 | 42.34422 | 10.69127 | 37090 ft | 474 kts | 157° |
| 2026-05-04 15:18 | 42.28669 | 10.73495 | 37103 ft | 474 kts | 157° |
| 2026-05-04 15:19 | 42.20027 | 10.80020 | 37102 ft | 474 kts | 157° |
| 2026-05-04 15:19 | 42.11375 | 10.86541 | 36640 ft | 475 kts | 157° |
| 2026-05-04 15:20 | 42.08488 | 10.88713 | 36239 ft | 476 kts | 157° |
| 2026-05-04 15:20 | 42.05594 | 10.90893 | 35860 ft | 477 kts | 157° |
| 2026-05-04 15:20 | 42.02692 | 10.93077 | 35487 ft | 479 kts | 158° |
| 2026-05-04 15:20 | 41.99782 | 10.95263 | 35126 ft | 480 kts | 158° |
| 2026-05-04 15:21 | 41.96862 | 10.97453 | 34749 ft | 481 kts | 158° |
| 2026-05-04 15:21 | 41.93927 | 10.99647 | 34391 ft | 482 kts | 158° |
| 2026-05-04 15:21 | 41.89029 | 11.03252 | 33761 ft | 481 kts | 162° |
| 2026-05-04 15:22 | 41.84913 | 11.05091 | 33204 ft | 464 kts | 178° |
| 2026-05-04 15:22 | 41.82773 | 11.05436 | 32899 ft | 455 kts | 186° |
| 2026-05-04 15:22 | 41.76766 | 11.04219 | 32022 ft | 425 kts | 208° |
| 2026-05-04 15:23 | 41.74128 | 11.02576 | 31593 ft | 412 kts | 218° |
| 2026-05-04 15:23 | 41.71815 | 11.00411 | 31166 ft | 402 kts | 225° |
| 2026-05-04 15:23 | 41.69655 | 10.98054 | 30754 ft | 400 kts | 225° |
| 2026-05-04 15:23 | 41.67504 | 10.95718 | 30344 ft | 397 kts | 225° |
| 2026-05-04 15:24 | 41.63210 | 10.91073 | 29408 ft | 396 kts | 224° |
| 2026-05-04 15:24 | 41.58947 | 10.86465 | 28476 ft | 393 kts | 224° |
| 2026-05-04 15:25 | 41.56827 | 10.84173 | 28018 ft | 391 kts | 223° |
| 2026-05-04 15:25 | 41.54715 | 10.81892 | 27575 ft | 390 kts | 223° |
| 2026-05-04 15:25 | 41.52610 | 10.79618 | 27145 ft | 389 kts | 223° |
| 2026-05-04 15:26 | 41.48421 | 10.75095 | 26291 ft | 386 kts | 223° |
| 2026-05-04 15:26 | 41.46329 | 10.72844 | 25866 ft | 385 kts | 222° |
| 2026-05-04 15:26 | 41.42166 | 10.68375 | 25052 ft | 383 kts | 221° |
| 2026-05-04 15:27 | 41.40091 | 10.66149 | 24661 ft | 382 kts | 221° |
| 2026-05-04 15:27 | 41.35960 | 10.61717 | 23869 ft | 380 kts | 221° |
| 2026-05-04 15:28 | 41.31850 | 10.57306 | 23210 ft | 378 kts | 221° |
| 2026-05-04 15:28 | 41.29809 | 10.55121 | 22960 ft | 375 kts | 220° |
| 2026-05-04 15:28 | 41.25763 | 10.50802 | 22414 ft | 372 kts | 220° |
| 2026-05-04 15:29 | 41.23752 | 10.48653 | 22153 ft | 370 kts | 220° |
| 2026-05-04 15:30 | 41.15818 | 10.40209 | 21130 ft | 363 kts | 220° |
| 2026-05-04 15:30 | 41.09936 | 10.33968 | 20385 ft | 359 kts | 220° |
| 2026-05-04 15:31 | 41.06050 | 10.29856 | 19886 ft | 356 kts | 220° |
| 2026-05-04 15:31 | 41.04121 | 10.27813 | 19652 ft | 355 kts | 220° |
| 2026-05-04 15:32 | 40.98367 | 10.21729 | 18935 ft | 351 kts | 220° |
| 2026-05-04 15:32 | 40.94808 | 10.17412 | 18474 ft | 346 kts | 236° |
| 2026-05-04 15:33 | 40.93298 | 10.11485 | 17940 ft | 345 kts | 267° |
| 2026-05-04 15:34 | 40.94115 | 10.02143 | 16522 ft | 338 kts | 276° |
| 2026-05-04 15:34 | 40.94426 | 9.99064 | 16020 ft | 337 kts | 276° |
| 2026-05-04 15:34 | 40.94940 | 9.92934 | 15026 ft | 333 kts | 268° |
| 2026-05-04 15:35 | 40.93873 | 9.87104 | 14133 ft | 326 kts | 243° |
| 2026-05-04 15:35 | 40.92678 | 9.84574 | 13752 ft | 321 kts | 236° |
| 2026-05-04 15:35 | 40.91432 | 9.82195 | 13612 ft | 309 kts | 236° |
| 2026-05-04 15:36 | 40.89091 | 9.77691 | 13340 ft | 286 kts | 236° |
| 2026-05-04 15:36 | 40.87983 | 9.75555 | 13208 ft | 276 kts | 236° |
| 2026-05-04 15:36 | 40.86914 | 9.73498 | 13074 ft | 267 kts | 236° |
| 2026-05-04 15:37 | 40.85870 | 9.71491 | 12848 ft | 262 kts | 236° |
| 2026-05-04 15:37 | 40.84843 | 9.69522 | 12587 ft | 259 kts | 236° |
| 2026-05-04 15:37 | 40.83825 | 9.67572 | 12339 ft | 257 kts | 236° |
| 2026-05-04 15:37 | 40.82811 | 9.65635 | 12087 ft | 256 kts | 236° |
| 2026-05-04 15:38 | 40.81805 | 9.63710 | 11837 ft | 255 kts | 236° |
| 2026-05-04 15:38 | 40.80801 | 9.61789 | 11586 ft | 253 kts | 236° |
| 2026-05-04 15:38 | 40.79806 | 9.59883 | 11345 ft | 252 kts | 236° |
| 2026-05-04 15:38 | 40.78813 | 9.57982 | 11099 ft | 251 kts | 236° |
| 2026-05-04 15:39 | 40.77822 | 9.56086 | 10855 ft | 250 kts | 236° |
| 2026-05-04 15:39 | 40.76836 | 9.54202 | 10621 ft | 249 kts | 236° |
| 2026-05-04 15:39 | 40.74876 | 9.50462 | 10142 ft | 247 kts | 236° |
| 2026-05-04 15:40 | 40.73898 | 9.48602 | 9949 ft | 246 kts | 236° |
| 2026-05-04 15:40 | 40.72925 | 9.46751 | 9818 ft | 245 kts | 236° |
| 2026-05-04 15:40 | 40.71959 | 9.44911 | 9687 ft | 242 kts | 234° |
| 2026-05-04 15:40 | 40.71047 | 9.43041 | 9324 ft | 244 kts | 245° |
| 2026-05-04 15:41 | 40.70713 | 9.40874 | 8662 ft | 246 kts | 270° |
| 2026-05-04 15:41 | 40.71085 | 9.38677 | 8109 ft | 245 kts | 282° |
| 2026-05-04 15:41 | 40.71569 | 9.36538 | 7516 ft | 242 kts | 282° |
| 2026-05-04 15:41 | 40.72046 | 9.34412 | 6911 ft | 242 kts | 282° |
| 2026-05-04 15:42 | 40.72523 | 9.32283 | 6314 ft | 242 kts | 282° |
| 2026-05-04 15:42 | 40.73213 | 9.30319 | 6063 ft | 233 kts | 304° |
| 2026-05-04 15:42 | 40.74441 | 9.29033 | 5998 ft | 221 kts | 332° |
| 2026-05-04 15:42 | 40.75875 | 9.28621 | 6032 ft | 204 kts | 356° |
| 2026-05-04 15:43 | 40.77173 | 9.28954 | 5990 ft | 184 kts | 20° |
| 2026-05-04 15:43 | 40.78216 | 9.29817 | 5996 ft | 172 kts | 43° |
| 2026-05-04 15:43 | 40.78972 | 9.31016 | 5901 ft | 168 kts | 57° |
| 2026-05-04 15:43 | 40.79621 | 9.32252 | 5987 ft | 162 kts | 56° |
| 2026-05-04 15:44 | 40.80296 | 9.33545 | 5776 ft | 167 kts | 56° |
| 2026-05-04 15:44 | 40.80938 | 9.34790 | 5468 ft | 166 kts | 58° |
| 2026-05-04 15:44 | 40.81598 | 9.36046 | 5151 ft | 165 kts | 58° |
| 2026-05-04 15:44 | 40.82257 | 9.37265 | 4762 ft | 165 kts | 56° |
| 2026-05-04 15:45 | 40.82947 | 9.38502 | 4295 ft | 168 kts | 56° |
| 2026-05-04 15:45 | 40.83667 | 9.39733 | 3849 ft | 169 kts | 56° |
| 2026-05-04 15:45 | 40.84341 | 9.41012 | 3423 ft | 168 kts | 63° |
| 2026-05-04 15:45 | 40.84944 | 9.42305 | 3006 ft | 165 kts | 58° |
| 2026-05-04 15:46 | 40.85610 | 9.43526 | 2645 ft | 159 kts | 57° |
| 2026-05-04 15:46 | 40.86196 | 9.44742 | 2224 ft | 156 kts | 61° |
| 2026-05-04 15:46 | 40.86792 | 9.45913 | 1818 ft | 152 kts | 53° |
| 2026-05-04 15:46 | 40.87428 | 9.47054 | 1376 ft | 155 kts | 59° |
| 2026-05-04 15:47 | 40.88011 | 9.48228 | 991 ft | 154 kts | 57° |
| 2026-05-04 15:47 | 40.88619 | 9.49364 | 614 ft | 150 kts | 56° |
| 2026-05-04 15:47 | 40.89199 | 9.50494 | 257 ft | 148 kts | 59° |
| 2026-05-04 15:47 | 40.89763 | 9.51546 | 373 ft | 142 kts | 58° |
| 2026-05-04 15:48 | 40.90354 | 9.52659 | 1188 ft | 151 kts | 58° |
| 2026-05-04 15:48 | 40.91013 | 9.53876 | 1871 ft | 175 kts | 58° |
| 2026-05-04 15:48 | 40.92029 | 9.57068 | 2880 ft | 206 kts | 104° |
| 2026-05-04 15:49 | 40.91432 | 9.58751 | 3615 ft | 204 kts | 138° |
| 2026-05-04 15:49 | 40.90214 | 9.59660 | 4383 ft | 205 kts | 174° |
| 2026-05-04 15:49 | 40.88829 | 9.59427 | 5214 ft | 203 kts | 210° |
| 2026-05-04 15:49 | 40.87685 | 9.58303 | 5804 ft | 207 kts | 222° |
| 2026-05-04 15:50 | 40.86611 | 9.57050 | 5964 ft | 206 kts | 222° |
| 2026-05-04 15:50 | 40.85551 | 9.55783 | 5999 ft | 205 kts | 223° |
| 2026-05-04 15:50 | 40.84497 | 9.54525 | 6004 ft | 204 kts | 223° |
| 2026-05-04 15:50 | 40.83441 | 9.53270 | 6002 ft | 204 kts | 223° |
| 2026-05-04 15:51 | 40.82385 | 9.52020 | 6007 ft | 204 kts | 222° |
| 2026-05-04 15:51 | 40.81324 | 9.50770 | 6009 ft | 204 kts | 222° |
| 2026-05-04 15:51 | 40.80261 | 9.49525 | 6002 ft | 204 kts | 223° |
| 2026-05-04 15:51 | 40.79197 | 9.48283 | 6010 ft | 204 kts | 222° |
| 2026-05-04 15:52 | 40.78132 | 9.47042 | 6006 ft | 204 kts | 222° |
| 2026-05-04 15:52 | 40.77248 | 9.45608 | 6024 ft | 203 kts | 244° |
| 2026-05-04 15:52 | 40.76987 | 9.43781 | 6019 ft | 206 kts | 267° |
| 2026-05-04 15:52 | 40.77006 | 9.41893 | 6017 ft | 206 kts | 267° |
| 2026-05-04 15:53 | 40.77027 | 9.39988 | 5790 ft | 208 kts | 267° |
| 2026-05-04 15:53 | 40.77050 | 9.38095 | 5608 ft | 206 kts | 266° |
| 2026-05-04 15:53 | 40.77122 | 9.36240 | 5273 ft | 200 kts | 278° |
| 2026-05-04 15:53 | 40.77798 | 9.34663 | 4907 ft | 202 kts | 314° |
| 2026-05-04 15:54 | 40.79062 | 9.33890 | 4513 ft | 203 kts | 352° |
| 2026-05-04 15:54 | 40.80404 | 9.34248 | 4131 ft | 195 kts | 32° |
| 2026-05-04 15:54 | 40.81325 | 9.35470 | 3777 ft | 185 kts | 57° |
| 2026-05-04 15:54 | 40.82069 | 9.36896 | 3448 ft | 193 kts | 58° |
| 2026-05-04 15:55 | 40.82832 | 9.38355 | 3111 ft | 196 kts | 57° |
| 2026-05-04 15:55 | 40.83575 | 9.39781 | 2944 ft | 177 kts | 57° |
| 2026-05-04 15:55 | 40.84244 | 9.41054 | 2726 ft | 162 kts | 58° |
| 2026-05-04 15:55 | 40.84876 | 9.42244 | 2391 ft | 156 kts | 56° |
| 2026-05-04 15:56 | 40.85502 | 9.43398 | 2022 ft | 152 kts | 56° |
| 2026-05-04 15:56 | 40.86081 | 9.44524 | 1698 ft | 144 kts | 61° |
| 2026-05-04 15:56 | 40.86645 | 9.45566 | 1417 ft | 136 kts | 54° |
| 2026-05-04 15:56 | 40.87195 | 9.46575 | 1092 ft | 136 kts | 58° |
| 2026-05-04 15:57 | 40.87702 | 9.47610 | 828 ft | 133 kts | 57° |
| 2026-05-04 15:57 | 40.88240 | 9.48589 | 620 ft | 130 kts | 59° |
| 2026-05-04 15:57 | 40.88723 | 9.49578 | 357 ft | 128 kts | 57° |
| 2026-05-04 15:57 | 40.89236 | 9.50557 | 147 ft | 128 kts | 59° |
| 2026-05-04 15:58 | 40.89708 | 9.51478 | 43 ft | 112 kts | 57° |
| 2026-05-04 15:58 | 40.90021 | 9.52090 | 34 ft | 39 kts | 54° |
| 2026-05-04 15:58 | 40.90125 | 9.52273 | 33 ft | 24 kts | 54° |
| 2026-05-04 15:58 | 40.90248 | 9.52492 | 32 ft | 36 kts | 51° |
| 2026-05-04 15:59 | 40.90377 | 9.52685 | 30 ft | 15 kts | 9° |
| 2026-05-04 15:59 | 40.90456 | 9.52635 | 30 ft | 12 kts | 285° |
| 2026-05-04 15:59 | 40.90455 | 9.52530 | 31 ft | 12 kts | 266° |
| 2026-05-04 15:59 | 40.90420 | 9.52430 | 32 ft | 12 kts | 233° |
| 2026-05-04 16:00 | 40.90377 | 9.52347 | 31 ft | 10 kts | 235° |
| 2026-05-04 16:00 | 40.90336 | 9.52268 | 33 ft | 14 kts | 235° |
| 2026-05-04 16:00 | 40.90266 | 9.52137 | 34 ft | 17 kts | 237° |
| 2026-05-04 16:00 | 40.90201 | 9.52010 | 35 ft | 16 kts | 235° |
| 2026-05-04 16:01 | 40.90180 | 9.51891 | 35 ft | 13 kts | 279° |
| 2026-05-04 16:01 | 40.90223 | 9.51802 | 36 ft | 8 kts | 320° |
| 2026-05-04 16:01 | 40.90221 | 9.51751 | 36 ft | 5 kts | 252° |
| 2026-05-04 16:01 | 40.90234 | 9.51733 | 36 ft | 2 kts | 327° |
| 2026-05-04 16:02 | 40.90235 | 9.51732 | 36 ft | 0 kts | 326° |
| 2026-05-04 16:02 | 40.90266 | 9.51703 | 36 ft | 2 kts | 324° |
| 2026-05-04 16:03 | 40.90270 | 9.51699 | 36 ft | 0 kts | 324° |